Time;durP1;ratioP1;P1;durP2;ratioP2;P2;SDS_P1;SDS_P2;PMS_P1;PMS_P2;Temp;Humidity;BMP_temperature;BMP_pressure;BME280_temperature;BME280_humidity;BME280_pressure;Samples;Min_cycle;Max_cycle;Signal;HPM_P1;HPM_P2
2022/08/14 00:01:24;;;;;;;13.22;5.90;;;;;;;21.50;69.77;100320.15;1727405;83;20926;-42
2022/08/14 00:03:52;;;;;;;10.43;5.30;;;;;;;21.47;69.93;100322.99;1727403;83;20985;-42
2022/08/14 00:06:19;;;;;;;6.28;4.90;;;;;;;21.42;70.20;100323.78;1730016;82;21213;-42
2022/08/14 00:08:46;;;;;;;14.98;5.20;;;;;;;21.36;70.51;100318.44;1747640;82;20971;-42
2022/08/14 00:11:14;;;;;;;12.47;5.08;;;;;;;21.28;70.97;100325.14;1747610;82;20994;-42
2022/08/14 00:13:41;;;;;;;8.30;4.58;;;;;;;21.22;71.28;100315.89;1747659;82;20908;-42
2022/08/14 00:16:13;;;;;;;7.58;5.22;;;;;;;21.18;71.73;100325.77;1747535;82;21330;-42
2022/08/14 00:18:37;;;;;;;11.78;4.97;;;;;;;21.12;72.23;100320.91;1743535;82;21058;-42
2022/08/14 00:21:06;;;;;;;9.38;5.10;;;;;;;21.06;72.51;100325.22;1739410;82;20987;-42
2022/08/14 00:23:33;;;;;;;10.10;4.90;;;;;;;21.00;72.87;100330.89;1739265;82;20949;-42
2022/08/14 00:26:00;;;;;;;15.98;4.95;;;;;;;20.91;73.13;100324.43;1739017;82;20904;-42
2022/08/14 00:28:27;;;;;;;11.75;5.80;;;;;;;20.86;73.83;100326.06;1714600;82;20941;-42
2022/08/14 00:30:56;;;;;;;5.53;4.35;;;;;;;20.81;74.11;100318.91;1714439;83;22218;-41
2022/08/14 00:33:27;;;;;;;8.38;4.62;;;;;;;20.77;74.62;100321.33;1714712;82;21057;-42
2022/08/14 00:35:54;;;;;;;12.10;4.92;;;;;;;20.74;75.11;100320.22;1714502;82;20995;-43
2022/08/14 00:38:21;;;;;;;9.48;5.15;;;;;;;20.70;75.46;100316.10;1714562;82;20863;-42
2022/08/14 00:40:48;;;;;;;8.38;4.65;;;;;;;20.65;75.80;100313.30;1714693;82;21325;-42
2022/08/14 00:43:15;;;;;;;13.03;5.00;;;;;;;20.60;75.95;100310.12;1714577;82;21396;-42
2022/08/14 00:45:42;;;;;;;10.63;4.87;;;;;;;20.58;76.22;100306.72;1714443;82;21053;-42
2022/08/14 00:48:09;;;;;;;8.90;4.55;;;;;;;20.59;76.49;100312.38;1738530;82;20956;-41
2022/08/14 00:50:37;;;;;;;7.42;4.45;;;;;;;20.59;76.46;100304.95;1739391;82;20902;-42
2022/08/14 00:53:03;;;;;;;6.75;4.92;;;;;;;20.59;76.41;100304.48;1739354;82;20932;-42
2022/08/14 00:55:30;;;;;;;9.83;4.55;;;;;;;20.59;76.41;100301.86;1739605;82;22151;-42
2022/08/14 01:00:44;;;;;;;7.12;4.90;;;;;;;20.54;76.94;100311.80;1739341;82;21588;-42
2022/08/14 01:03:11;;;;;;;10.98;5.03;;;;;;;20.47;77.08;100306.56;1720435;82;21003;-41
2022/08/14 01:05:38;;;;;;;8.63;4.90;;;;;;;20.40;77.77;100307.41;1719477;82;20994;-42
2022/08/14 01:08:05;;;;;;;9.75;4.65;;;;;;;20.34;78.06;100311.28;1714467;82;22218;-42
2022/08/14 01:10:51;;;;;;;5.22;4.80;;;;;;;20.28;78.38;100311.63;1714295;82;20985;-42
2022/08/14 01:13:28;;;;;;;10.38;5.03;;;;;;;20.20;78.72;100314.73;1714651;82;20998;-42
2022/08/14 01:15:58;;;;;;;10.80;4.78;;;;;;;20.12;79.39;100319.62;1714551;82;20942;-42
2022/08/14 01:21:16;;;;;;;7.22;5.20;;;;;;;19.97;80.75;100314.00;1727511;81;21163;-42
2022/08/14 01:23:45;;;;;;;8.65;4.62;;;;;;;19.85;81.30;100306.35;1743229;81;21028;-42
2022/08/14 01:26:14;;;;;;;13.83;5.58;;;;;;;19.71;81.99;100300.12;1722363;82;20987;-42
2022/08/14 01:28:41;;;;;;;12.25;5.33;;;;;;;19.67;82.32;100306.02;1747610;82;21524;-41
2022/08/14 01:31:14;;;;;;;9.48;4.72;;;;;;;19.67;82.68;100302.56;1747744;82;20990;-42
2022/08/14 01:34:28;;;;;;;9.48;4.80;;;;;;;19.72;83.06;100298.36;1798268;79;22584;-42
2022/08/14 01:36:54;;;;;;;10.30;5.10;;;;;;;19.69;83.12;100302.00;1758002;80;20881;-41
2022/08/14 01:39:21;;;;;;;12.20;5.42;;;;;;;19.68;83.27;100305.56;1754396;81;21301;-41
2022/08/14 01:41:55;;;;;;;7.42;5.25;;;;;;;19.67;83.14;100301.25;1749532;82;20881;-41
2022/08/14 01:44:17;;;;;;;14.87;4.95;;;;;;;19.66;83.05;100304.81;1724216;81;21986;-42
2022/08/14 01:46:45;;;;;;;10.82;5.15;;;;;;;19.67;83.17;100301.25;1719891;83;21000;-42
2022/08/14 01:49:17;;;;;;;12.40;4.85;;;;;;;19.66;83.30;100303.50;1719908;83;20888;-42
2022/08/14 01:51:44;;;;;;;6.20;5.00;;;;;;;19.64;83.65;100304.06;1719996;83;21117;-42
2022/08/14 01:54:23;;;;;;;5.92;4.90;;;;;;;19.58;84.10;100302.63;1720102;82;20995;-42
2022/08/14 01:56:47;;;;;;;9.28;4.78;;;;;;;19.56;84.43;100306.27;1719369;83;20991;-43
2022/08/14 01:59:23;;;;;;;8.15;4.95;;;;;;;19.53;84.48;100302.89;1720082;82;21457;-42
2022/08/14 02:01:51;;;;;;;7.30;4.42;;;;;;;19.56;84.58;100297.94;1722191;82;20969;-42
2022/08/14 02:04:21;;;;;;;8.15;4.92;;;;;;;19.58;84.73;100297.83;1720135;83;21292;-42
2022/08/14 02:06:50;;;;;;;8.45;4.85;;;;;;;19.60;84.50;100300.77;1719836;83;20889;-42
2022/08/14 02:09:18;;;;;;;10.25;4.85;;;;;;;19.66;84.22;100294.31;1719958;83;20987;-43
2022/08/14 02:11:45;;;;;;;6.80;4.80;;;;;;;19.71;83.95;100294.87;1720113;83;21525;-43
2022/08/14 02:14:13;;;;;;;5.28;4.62;;;;;;;19.79;83.73;100295.25;1719938;83;20987;-42
2022/08/14 02:16:44;;;;;;;5.28;4.78;;;;;;;19.85;83.52;100301.09;1719905;83;21201;-42
2022/08/14 02:19:17;;;;;;;9.90;5.40;;;;;;;19.86;83.39;100298.36;1746159;82;20979;-42
2022/08/14 02:21:47;;;;;;;9.98;5.37;;;;;;;19.88;83.31;100303.05;1749759;82;21541;-42
2022/08/14 02:24:14;;;;;;;8.95;4.97;;;;;;;19.90;83.26;100303.80;1720502;82;20889;-42
2022/08/14 02:26:48;;;;;;;8.98;5.00;;;;;;;19.95;83.09;100307.51;1749540;82;21023;-42
2022/08/14 02:29:20;;;;;;;8.85;5.20;;;;;;;19.98;82.94;100306.00;1749791;82;21266;-43
2022/08/14 02:31:51;;;;;;;11.38;5.20;;;;;;;20.00;82.81;100304.61;1729109;82;20983;-43
2022/08/14 02:34:28;;;;;;;8.95;4.85;;;;;;;20.01;82.90;100304.98;1709263;83;20991;-42
2022/08/14 02:36:57;;;;;;;8.27;5.37;;;;;;;19.98;82.88;100304.69;1707439;83;20940;-42
2022/08/14 02:39:24;;;;;;;10.60;4.60;;;;;;;19.95;83.34;100309.65;1709154;82;20920;-42
2022/08/14 02:41:51;;;;;;;8.85;5.20;;;;;;;19.89;83.90;100301.28;1707163;84;21307;-42
2022/08/14 02:44:21;;;;;;;8.03;4.78;;;;;;;19.81;84.59;100294.69;1706767;84;20948;-42
2022/08/14 02:46:47;;;;;;;10.68;5.20;;;;;;;19.74;85.26;100285.98;1706560;83;21015;-42
2022/08/14 02:49:13;;;;;;;10.72;5.40;;;;;;;19.70;85.73;100285.77;1706636;83;20952;-42
2022/08/14 02:51:41;;;;;;;6.60;5.15;;;;;;;19.65;86.34;100287.38;1706680;84;20956;-42
2022/08/14 02:54:09;;;;;;;11.68;5.12;;;;;;;19.58;86.92;100291.27;1686042;84;21238;-42
2022/08/14 02:56:37;;;;;;;12.00;5.03;;;;;;;19.52;87.32;100293.33;1706585;84;21031;-42
2022/08/14 02:59:06;;;;;;;7.75;5.47;;;;;;;19.48;87.90;100285.27;1725579;82;20976;-42
2022/08/14 03:01:34;;;;;;;16.73;5.80;;;;;;;19.43;88.48;100287.32;1735886;82;20926;-42
2022/08/14 03:04:04;;;;;;;10.82;5.50;;;;;;;19.39;89.12;100283.19;1736028;82;20944;-42
2022/08/14 03:06:31;;;;;;;17.92;5.22;;;;;;;19.34;89.64;100274.75;1735876;82;21117;-42
2022/08/14 03:09:00;;;;;;;9.13;5.05;;;;;;;19.31;90.23;100273.13;1736006;82;20972;-42
2022/08/14 03:11:27;;;;;;;13.28;5.20;;;;;;;19.31;90.52;100276.20;1715115;82;20889;-42
2022/08/14 03:13:54;;;;;;;14.63;4.92;;;;;;;19.32;90.67;100270.88;1715053;82;20941;-42
2022/08/14 03:16:24;;;;;;;7.83;5.45;;;;;;;19.36;90.56;100273.70;1735731;82;21391;-42
2022/08/14 03:18:53;;;;;;;9.03;5.03;;;;;;;19.41;90.43;100276.06;1733452;82;21819;-42
2022/08/14 03:21:22;;;;;;;14.03;5.10;;;;;;;19.47;90.32;100274.39;1736082;82;20893;-42
2022/08/14 03:23:58;;;;;;;13.03;5.05;;;;;;;19.52;90.34;100276.75;1715193;82;21415;-42
2022/08/14 03:26:23;;;;;;;15.05;5.25;;;;;;;19.56;90.46;100268.21;1735286;82;20960;-41
2022/08/14 03:28:50;;;;;;;8.48;5.12;;;;;;;19.62;90.48;100273.12;1735863;81;20925;-42
2022/08/14 03:31:21;;;;;;;7.30;6.08;;;;;;;19.67;90.33;100271.89;1715325;82;21957;-42
2022/08/14 03:33:47;;;;;;;5.85;5.17;;;;;;;19.72;90.51;100271.63;1742669;81;20960;-42
2022/08/14 03:36:15;;;;;;;12.80;5.90;;;;;;;19.80;90.35;100269.37;1749878;81;21479;-42
2022/08/14 03:38:44;;;;;;;11.75;5.10;;;;;;;19.88;90.11;100274.65;1738109;82;21129;-42
2022/08/14 03:41:17;;;;;;;6.25;5.42;;;;;;;19.95;90.21;100268.11;1720037;83;21007;-42
2022/08/14 03:43:50;;;;;;;8.55;5.20;;;;;;;20.03;89.67;100270.27;1720184;83;21283;-42
2022/08/14 03:46:17;;;;;;;9.90;5.60;;;;;;;20.09;89.14;100265.50;1719294;83;20908;-43
2022/08/14 03:48:44;;;;;;;9.93;5.65;;;;;;;20.21;88.50;100271.78;1720010;83;20991;-42
2022/08/14 03:51:12;;;;;;;9.10;4.37;;;;;;;20.34;87.72;100271.86;1720031;83;20991;-42
2022/08/14 03:53:44;;;;;;;8.43;4.65;;;;;;;20.48;87.21;100264.88;1720018;83;20913;-43
2022/08/14 03:56:17;;;;;;;7.50;5.03;;;;;;;20.62;85.82;100263.99;1719988;82;21260;-41
2022/08/14 03:58:45;;;;;;;14.95;5.10;;;;;;;20.74;85.28;100261.91;1734995;82;21541;-42
2022/08/14 04:01:13;;;;;;;14.80;5.05;;;;;;;20.87;84.68;100261.98;1748770;82;21475;-42
2022/08/14 04:03:40;;;;;;;10.63;4.78;;;;;;;20.98;84.21;100251.23;1750191;82;20924;-42
2022/08/14 04:06:07;;;;;;;5.90;5.28;;;;;;;21.05;83.90;100258.63;1749920;82;21023;-41
2022/08/14 04:08:36;;;;;;;10.50;5.72;;;;;;;21.15;83.81;100250.97;1749617;82;21092;-42
2022/08/14 04:11:04;;;;;;;10.10;5.33;;;;;;;21.20;83.60;100257.22;1749910;82;20960;-42
2022/08/14 04:13:34;;;;;;;7.92;4.90;;;;;;;21.24;83.83;100251.66;1722191;82;21050;-42
2022/08/14 04:16:06;;;;;;;6.85;5.03;;;;;;;21.31;83.37;100249.92;1749869;81;20932;-42
2022/08/14 04:18:34;;;;;;;8.48;4.92;;;;;;;21.37;83.74;100253.48;1697767;82;21043;-42
2022/08/14 04:21:01;;;;;;;8.73;4.80;;;;;;;21.44;83.65;100244.22;1715877;83;21105;-41
2022/08/14 04:23:29;;;;;;;8.40;5.62;;;;;;;21.53;83.31;100234.38;1719662;82;21632;-42
2022/08/14 04:25:57;;;;;;;10.03;5.40;;;;;;;21.64;83.35;100238.94;1697347;82;20995;-42
2022/08/14 04:28:25;;;;;;;16.70;5.50;;;;;;;21.77;82.88;100239.42;1747080;81;21032;-42
2022/08/14 04:30:52;;;;;;;6.67;5.08;;;;;;;21.87;82.69;100240.95;1750009;81;20924;-42
2022/08/14 04:33:19;;;;;;;14.95;5.00;;;;;;;22.02;82.00;100241.17;1749636;81;21216;-42
2022/08/14 04:35:45;;;;;;;7.42;4.80;;;;;;;22.23;81.82;100237.52;1749895;82;20956;-42
2022/08/14 04:43:42;;;;;;;9.28;4.97;;;;;;;23.07;78.26;100230.64;1750075;81;21605;-42
2022/08/14 04:46:13;;;;;;;7.60;4.58;;;;;;;23.44;75.30;100221.30;1695722;82;21309;-42
2022/08/14 04:48:39;;;;;;;7.05;4.45;;;;;;;23.67;71.50;100226.61;1747631;82;21028;-42
2022/08/14 04:51:12;;;;;;;10.70;4.28;;;;;;;23.87;70.67;100228.16;1747978;81;21502;-42
2022/08/14 04:53:42;;;;;;;9.80;4.80;;;;;;;24.04;69.31;100230.35;1748230;82;21115;-43
2022/08/14 04:56:11;;;;;;;10.20;4.62;;;;;;;24.10;67.94;100227.71;1745985;82;21366;-43
2022/08/14 04:58:39;;;;;;;6.40;5.20;;;;;;;24.11;68.97;100229.39;1720592;82;21158;-43
2022/08/14 05:01:06;;;;;;;15.08;6.53;;;;;;;24.18;67.61;100233.72;1720169;82;21566;-43
2022/08/14 05:03:35;;;;;;;8.60;5.53;;;;;;;24.27;68.16;100232.97;1720467;82;20979;-43
2022/08/14 05:06:06;;;;;;;14.00;5.55;;;;;;;24.40;67.47;100235.47;1739251;82;21459;-43
2022/08/14 05:08:33;;;;;;;6.67;4.50;;;;;;;24.58;67.69;100235.78;1748733;80;20900;-43
2022/08/14 05:11:02;;;;;;;10.03;4.53;;;;;;;24.79;66.98;100246.47;1747831;80;21296;-43
2022/08/14 05:13:30;;;;;;;7.55;4.53;;;;;;;24.96;65.42;100244.21;1747964;81;20936;-43
2022/08/14 05:15:58;;;;;;;4.92;4.12;;;;;;;25.06;65.06;100237.67;1699898;82;21008;-43
2022/08/14 05:18:30;;;;;;;13.62;4.30;;;;;;;25.06;64.71;100237.20;1748223;80;20933;-43
2022/08/14 05:20:59;;;;;;;6.90;4.35;;;;;;;24.99;64.90;100239.16;1747913;81;22118;-43
2022/08/14 05:23:29;;;;;;;6.20;4.15;;;;;;;24.87;64.90;100239.19;1748150;82;21233;-43
2022/08/14 05:26:00;;;;;;;12.35;4.20;;;;;;;24.70;64.31;100241.88;1730661;82;21402;-43
2022/08/14 05:28:28;;;;;;;14.73;4.25;;;;;;;24.57;65.31;100240.71;1748155;82;20940;-43
2022/08/14 05:31:01;;;;;;;6.17;4.37;;;;;;;24.46;66.14;100241.58;1720073;82;21505;-43
2022/08/14 05:33:30;;;;;;;8.28;4.25;;;;;;;24.38;67.22;100240.05;1723211;82;21031;-43
2022/08/14 05:36:02;;;;;;;8.58;4.10;;;;;;;24.33;66.96;100240.41;1748413;82;21937;-43
2022/08/14 05:38:32;;;;;;;11.78;4.80;;;;;;;24.34;66.44;100247.37;1738657;82;20881;-43
2022/08/14 05:41:01;;;;;;;8.95;4.28;;;;;;;24.37;66.59;100245.80;1722702;82;20908;-43
2022/08/14 05:43:29;;;;;;;9.03;4.42;;;;;;;24.47;67.24;100244.58;1742540;82;20964;-43
2022/08/14 05:46:00;;;;;;;7.58;4.03;;;;;;;24.62;66.84;100244.31;1747825;82;20980;-43
2022/08/14 05:48:27;;;;;;;5.55;4.30;;;;;;;24.72;65.68;100236.47;1721177;81;21961;-43
2022/08/14 05:50:55;;;;;;;6.85;4.22;;;;;;;24.82;65.84;100242.23;1739499;81;21599;-43
2022/08/14 05:53:23;;;;;;;10.80;4.83;;;;;;;24.92;65.00;100244.97;1719987;82;21526;-43
2022/08/14 05:55:51;;;;;;;9.90;4.62;;;;;;;24.98;64.78;100249.39;1736520;82;20932;-43
2022/08/14 05:58:17;;;;;;;13.75;3.95;;;;;;;25.03;62.78;100239.25;1749469;82;21018;-43
2022/08/14 06:00:45;;;;;;;13.10;4.78;;;;;;;25.03;63.58;100237.47;1749757;82;21233;-43
2022/08/14 06:03:15;;;;;;;12.23;4.42;;;;;;;25.10;62.90;100243.06;1747571;82;21003;-43
2022/08/14 06:05:45;;;;;;;10.60;4.10;;;;;;;25.16;62.61;100235.95;1699885;83;20999;-42
2022/08/14 06:08:21;;;;;;;11.68;4.87;;;;;;;25.19;61.49;100243.64;1725997;80;20976;-43
2022/08/14 06:10:50;;;;;;;12.88;4.12;;;;;;;25.23;60.67;100238.44;1720099;82;20952;-43
2022/08/14 06:13:18;;;;;;;8.80;3.95;;;;;;;25.25;62.12;100239.14;1720418;82;21239;-43
2022/08/14 06:15:46;;;;;;;11.55;4.28;;;;;;;25.27;60.28;100235.05;1744991;82;20989;-43
2022/08/14 06:18:14;;;;;;;7.28;4.12;;;;;;;25.22;59.27;100231.45;1748367;82;20932;-43
2022/08/14 06:20:42;;;;;;;14.53;4.50;;;;;;;25.14;61.00;100239.22;1742425;82;21202;-43
2022/08/14 06:23:08;;;;;;;16.93;4.17;;;;;;;25.04;60.15;100234.31;1748426;82;20849;-43
2022/08/14 06:25:35;;;;;;;13.45;4.12;;;;;;;25.01;60.42;100230.61;1748438;82;21137;-42
2022/08/14 06:28:03;;;;;;;7.90;4.12;;;;;;;24.95;59.06;100230.16;1720416;82;20948;-43
2022/08/14 06:30:33;;;;;;;10.35;4.03;;;;;;;24.93;60.55;100237.39;1720367;82;20964;-43
2022/08/14 06:33:00;;;;;;;10.05;4.28;;;;;;;24.96;60.50;100231.83;1720369;82;20931;-43
2022/08/14 06:35:27;;;;;;;6.87;3.92;;;;;;;24.98;60.45;100228.22;1720270;82;20960;-43
2022/08/14 06:37:57;;;;;;;17.05;3.85;;;;;;;25.02;59.91;100233.14;1720414;82;21167;-43
2022/08/14 06:40:29;;;;;;;9.68;3.90;;;;;;;25.15;59.59;100232.09;1720394;82;20956;-43
2022/08/14 06:43:02;;;;;;;7.53;4.20;;;;;;;25.19;58.11;100234.38;1720497;82;20955;-43
2022/08/14 06:45:30;;;;;;;14.83;4.00;;;;;;;25.25;59.31;100239.14;1743580;82;20945;-43
2022/08/14 06:47:56;;;;;;;6.75;3.90;;;;;;;25.37;58.70;100239.06;1748163;80;21003;-43
2022/08/14 06:50:25;;;;;;;10.25;3.72;;;;;;;25.54;58.38;100240.33;1748328;82;21273;-43
2022/08/14 06:52:52;;;;;;;13.15;4.08;;;;;;;25.70;55.22;100244.30;1748144;82;20968;-43
2022/08/14 06:55:19;;;;;;;12.82;4.08;;;;;;;25.79;55.73;100247.00;1748839;82;20964;-43
2022/08/14 06:57:49;;;;;;;8.38;4.17;;;;;;;25.80;56.50;100243.87;1743931;82;21430;-43
2022/08/14 07:00:22;;;;;;;8.60;4.10;;;;;;;25.82;56.27;100250.70;1729181;82;20987;-43
2022/08/14 07:05:45;;;;;;;8.00;4.12;;;;;;;25.92;54.87;100251.25;1726502;82;20892;-43
2022/08/14 07:08:21;;;;;;;14.93;4.33;;;;;;;25.89;55.84;100245.72;1728148;82;20956;-43
2022/08/14 07:10:49;;;;;;;7.97;4.03;;;;;;;25.88;55.54;100252.46;1724518;82;21549;-43
2022/08/14 07:13:19;;;;;;;8.83;3.40;;;;;;;25.86;55.64;100247.78;1720272;82;21030;-43
2022/08/14 07:15:49;;;;;;;10.20;3.83;;;;;;;25.81;55.64;100244.23;1720366;82;21239;-43
2022/08/14 07:18:21;;;;;;;13.38;4.17;;;;;;;25.75;56.55;100244.27;1743250;81;21481;-43
2022/08/14 07:20:48;;;;;;;11.53;3.60;;;;;;;25.79;57.60;100240.87;1728472;82;21022;-43
2022/08/14 07:23:15;;;;;;;11.30;3.77;;;;;;;25.90;56.84;100246.07;1720630;82;20983;-43
2022/08/14 07:25:43;;;;;;;10.38;3.90;;;;;;;26.09;56.33;100242.64;1731179;80;20964;-43
2022/08/14 07:28:17;;;;;;;8.38;3.90;;;;;;;26.34;56.21;100234.38;1746115;82;22120;-43
2022/08/14 07:30:44;;;;;;;13.78;4.15;;;;;;;26.60;55.07;100236.52;1749797;81;20979;-43
2022/08/14 07:33:12;;;;;;;13.55;4.08;;;;;;;26.79;55.95;100240.51;1728582;82;21528;-43
2022/08/14 07:35:39;;;;;;;9.30;4.12;;;;;;;27.01;55.59;100231.91;1739836;81;20924;-43
2022/08/14 07:38:06;;;;;;;22.90;4.15;;;;;;;27.28;55.16;100233.50;1731719;82;20984;-43
2022/08/14 07:40:34;;;;;;;9.05;3.77;;;;;;;27.57;53.27;100233.94;1747555;82;22037;-44
2022/08/14 07:43:01;;;;;;;14.03;4.20;;;;;;;27.66;50.69;100236.57;1732014;82;20944;-43
2022/08/14 07:45:28;;;;;;;7.87;4.30;;;;;;;27.67;51.18;100238.75;1734456;80;20944;-44
2022/08/14 07:47:56;;;;;;;12.78;3.95;;;;;;;27.75;49.13;100237.53;1727054;82;21506;-44
2022/08/14 07:50:24;;;;;;;12.13;4.08;;;;;;;27.83;50.47;100239.45;1749852;82;22663;-44
2022/08/14 07:52:51;;;;;;;10.82;4.00;;;;;;;27.88;48.80;100238.52;1738237;82;21264;-44
2022/08/14 07:55:18;;;;;;;22.42;4.55;;;;;;;27.99;50.97;100244.62;1721904;82;20916;-44
2022/08/14 07:57:46;;;;;;;14.87;4.20;;;;;;;28.19;50.99;100246.23;1722728;82;21462;-44
2022/08/14 08:00:16;;;;;;;8.35;3.75;;;;;;;28.31;49.11;100245.53;1747713;82;20936;-43
2022/08/14 08:02:46;;;;;;;11.68;4.10;;;;;;;28.33;46.47;100235.58;1727887;82;21446;-43
2022/08/14 08:05:14;;;;;;;13.40;3.80;;;;;;;28.20;46.94;100243.09;1711990;82;21794;-43
2022/08/14 08:07:45;;;;;;;10.13;4.03;;;;;;;28.09;46.33;100235.61;1739354;82;21489;-43
2022/08/14 08:10:33;;;;;;;11.00;4.15;;;;;;;27.96;47.12;100238.61;1728179;81;21525;-43
2022/08/14 08:13:20;;;;;;;23.50;4.30;;;;;;;27.89;47.40;100234.88;1742401;82;21514;-43
2022/08/14 08:15:49;;;;;;;9.43;3.75;;;;;;;27.82;47.43;100233.29;1693309;83;21026;-43
2022/08/14 08:18:17;;;;;;;14.63;3.98;;;;;;;27.75;47.40;100220.25;1728545;82;22116;-43
2022/08/14 08:20:46;;;;;;;14.30;4.25;;;;;;;27.70;48.89;100231.81;1719991;83;20976;-43
2022/08/14 08:23:15;;;;;;;12.82;4.25;;;;;;;27.70;48.99;100223.84;1720536;82;20912;-43
2022/08/14 08:25:45;;;;;;;11.35;4.00;;;;;;;27.76;49.38;100223.25;1734237;82;20940;-44
2022/08/14 08:28:25;;;;;;;13.32;4.55;;;;;;;27.88;49.58;100216.40;1736802;82;20999;-44
2022/08/14 08:30:58;;;;;;;11.83;4.17;;;;;;;28.03;49.64;100213.60;1727556;82;21845;-43
2022/08/14 08:33:28;;;;;;;11.55;4.20;;;;;;;28.25;48.56;100210.22;1656904;85;20959;-42
2022/08/14 08:35:59;;;;;;;10.82;4.05;;;;;;;28.39;47.68;100200.38;1658307;85;20959;-44
2022/08/14 08:38:26;;;;;;;16.87;4.10;;;;;;;28.54;47.88;100205.18;1694899;84;20913;-43
2022/08/14 08:40:55;;;;;;;11.20;4.20;;;;;;;28.63;46.13;100203.44;1691587;84;20980;-44
2022/08/14 08:43:26;;;;;;;14.58;4.12;;;;;;;28.69;45.91;100206.81;1692772;84;21155;-43
2022/08/14 08:46:05;;;;;;;10.05;4.83;;;;;;;28.80;44.99;100201.30;1695589;84;20961;-44
2022/08/14 08:48:51;;;;;;;19.77;6.35;;;;;;;28.97;47.50;100190.75;1682967;84;20996;-44
2022/08/14 08:51:27;;;;;;;14.58;4.35;;;;;;;29.28;47.28;100197.46;1673580;84;20933;-43
2022/08/14 08:54:05;;;;;;;9.95;3.92;;;;;;;29.63;46.54;100195.67;1712023;82;20972;-43
2022/08/14 08:56:46;;;;;;;18.32;4.60;;;;;;;29.97;43.58;100201.48;1716112;82;21135;-43
2022/08/14 08:59:25;;;;;;;22.52;5.37;;;;;;;30.15;45.14;100202.73;1720037;82;20973;-43
2022/08/14 09:01:58;;;;;;;15.63;3.70;;;;;;;30.51;47.99;100198.96;1712017;82;20980;-43
2022/08/14 09:04:27;;;;;;;17.12;5.12;;;;;;;30.94;44.82;100196.15;1734432;82;20999;-44
2022/08/14 09:06:54;;;;;;;10.08;3.95;;;;;;;31.27;44.32;100187.28;1724535;82;21074;-44
2022/08/14 09:09:30;;;;;;;16.25;4.17;;;;;;;31.45;40.88;100189.25;1731592;81;21514;-44
2022/08/14 09:12:00;;;;;;;16.17;4.67;;;;;;;31.43;43.37;100188.55;1695754;83;20941;-41
2022/08/14 09:14:29;;;;;;;10.98;3.95;;;;;;;31.52;43.82;100186.69;1720107;82;20953;-43
2022/08/14 09:16:57;;;;;;;10.78;4.25;;;;;;;31.82;45.17;100181.58;1712376;82;20956;-43
2022/08/14 09:19:26;;;;;;;14.55;4.58;;;;;;;32.16;41.78;100185.77;1708026;82;20933;-43
2022/08/14 09:21:53;;;;;;;14.18;4.17;;;;;;;32.29;37.91;100175.80;1729136;81;21077;-43
2022/08/14 09:24:20;;;;;;;20.70;4.30;;;;;;;32.06;38.30;100175.28;1732036;81;20925;-43
2022/08/14 09:26:47;;;;;;;16.23;4.42;;;;;;;31.94;39.25;100179.34;1710077;82;21351;-43
2022/08/14 09:29:14;;;;;;;18.27;4.75;;;;;;;31.87;38.47;100174.38;1709924;82;20889;-43
2022/08/14 09:31:46;;;;;;;22.25;4.10;;;;;;;31.81;39.45;100173.23;1730564;82;20929;-43
2022/08/14 09:34:51;;;;;;;12.40;4.62;;;;;;;31.77;41.12;100182.13;1721389;82;21357;-43
2022/08/14 09:37:38;;;;;;;13.65;4.00;;;;;;;31.84;42.18;100174.73;1707216;81;20929;-43
2022/08/14 09:40:32;;;;;;;19.15;4.12;;;;;;;31.92;39.30;100176.02;1706438;82;20933;-43
2022/08/14 09:43:12;;;;;;;13.93;3.67;;;;;;;31.87;39.42;100167.20;1708869;82;22256;-43
2022/08/14 09:45:47;;;;;;;12.78;4.15;;;;;;;31.75;39.05;100169.41;1734248;82;20944;-43
2022/08/14 09:48:19;;;;;;;11.88;3.95;;;;;;;31.68;40.23;100167.92;1663082;85;21759;-43
2022/08/14 09:50:52;;;;;;;17.95;4.30;;;;;;;31.75;41.21;100170.73;1671285;84;21049;-44
2022/08/14 09:53:42;;;;;;;13.15;3.87;;;;;;;31.80;40.37;100164.88;1677183;83;20968;-43
2022/08/14 09:56:08;;;;;;;17.60;4.80;;;;;;;31.86;39.20;100160.67;1673924;83;21044;-42
2022/08/14 09:58:44;;;;;;;18.90;4.45;;;;;;;31.82;37.78;100162.86;1694710;84;20991;-43
2022/08/14 10:01:14;;;;;;;20.08;5.87;;;;;;;31.80;39.35;100159.52;1688509;84;21144;-43
2022/08/14 10:03:51;;;;;;;18.67;5.00;;;;;;;31.84;38.54;100156.86;1695609;84;21047;-42
2022/08/14 10:06:24;;;;;;;16.35;4.42;;;;;;;31.99;39.22;100154.26;1693582;84;21063;-43
2022/08/14 10:08:54;;;;;;;15.85;4.72;;;;;;;32.25;38.61;100157.10;1695170;83;21019;-44
2022/08/14 10:11:30;;;;;;;18.20;3.95;;;;;;;32.46;37.12;100152.94;1693730;84;20941;-44
2022/08/14 10:13:58;;;;;;;10.50;4.30;;;;;;;32.53;36.24;100137.31;1675477;84;21222;-44
2022/08/14 10:16:29;;;;;;;9.13;4.42;;;;;;;32.56;37.36;100157.55;1685356;84;20913;-44
2022/08/14 10:19:08;;;;;;;13.10;4.45;;;;;;;32.61;37.25;100151.67;1678556;83;21015;-44
2022/08/14 10:21:38;;;;;;;28.60;4.83;;;;;;;32.79;38.21;100154.02;1667949;84;21000;-44
2022/08/14 10:24:07;;;;;;;12.28;4.30;;;;;;;32.99;37.95;100150.84;1668221;84;21072;-44
2022/08/14 10:26:34;;;;;;;11.85;3.65;;;;;;;32.96;35.74;100152.84;1639294;86;21308;-44
2022/08/14 10:29:08;;;;;;;11.22;4.60;;;;;;;32.83;35.02;100145.93;1680957;84;20972;-44
2022/08/14 10:31:37;;;;;;;16.50;3.80;;;;;;;32.65;35.45;100151.63;1695725;83;20937;-44
2022/08/14 10:34:09;;;;;;;11.25;4.12;;;;;;;32.60;35.05;100159.37;1673027;84;21040;-42
2022/08/14 10:36:41;;;;;;;9.40;3.65;;;;;;;32.58;35.14;100155.53;1710266;83;21005;-42
2022/08/14 10:39:24;;;;;;;9.70;3.85;;;;;;;32.65;36.77;100152.45;1701791;83;21255;-43
2022/08/14 10:42:05;;;;;;;9.05;5.10;;;;;;;32.94;35.31;100148.18;1683446;84;20986;-42
2022/08/14 10:44:45;;;;;;;14.53;4.35;;;;;;;33.17;35.01;100154.50;1689529;84;20959;-43
2022/08/14 10:47:13;;;;;;;12.90;4.00;;;;;;;33.40;35.98;100153.05;1677340;84;20964;-43
2022/08/14 10:49:51;;;;;;;22.13;4.10;;;;;;;33.53;35.58;100160.47;1678700;84;20962;-43
2022/08/14 10:52:13;;;;;;;17.90;4.20;;;;;;;33.53;36.90;100159.13;1685369;84;21123;-43
2022/08/14 10:54:46;;;;;;;17.20;3.72;;;;;;;33.49;35.51;100160.02;1700751;84;21003;-43
2022/08/14 10:57:24;;;;;;;10.38;4.25;;;;;;;33.35;34.58;100160.82;1686601;84;21072;-47
2022/08/14 10:59:59;;;;;;;9.35;4.20;;;;;;;33.17;35.26;100160.67;1692515;84;20964;-43
2022/08/14 11:02:29;;;;;;;11.27;4.27;;;;;;;33.06;35.22;100156.60;1679149;84;20948;-43
2022/08/14 11:05:13;;;;;;;7.70;3.75;;;;;;;32.95;36.62;100161.91;1699166;84;21271;-45
2022/08/14 11:07:56;;;;;;;16.35;4.53;;;;;;;32.83;35.94;100164.16;1693121;84;21047;-44
2022/08/14 11:10:27;;;;;;;13.38;3.65;;;;;;;32.72;36.14;100155.77;1675095;84;20987;-43
2022/08/14 11:12:56;;;;;;;14.93;3.87;;;;;;;32.49;35.36;100143.23;1683542;84;20964;-43
2022/08/14 11:15:26;;;;;;;10.03;3.92;;;;;;;32.37;37.08;100153.02;1687301;84;20932;-43
2022/08/14 11:17:54;;;;;;;15.10;4.08;;;;;;;32.44;36.61;100153.13;1676799;84;22078;-43
2022/08/14 11:20:24;;;;;;;15.83;4.78;;;;;;;32.59;37.49;100141.62;1674554;84;20932;-44
2022/08/14 11:22:53;;;;;;;11.43;3.95;;;;;;;32.65;36.59;100153.78;1681437;84;21015;-43
2022/08/14 11:25:25;;;;;;;14.40;3.90;;;;;;;32.62;36.54;100154.15;1701142;84;20996;-43
2022/08/14 11:27:54;;;;;;;11.43;3.67;;;;;;;32.78;35.93;100145.66;1719101;82;21010;-43
2022/08/14 11:30:26;;;;;;;17.05;6.85;;;;;;;32.84;35.59;100136.88;1692921;83;21126;-43
2022/08/14 11:32:54;;;;;;;15.18;4.83;;;;;;;32.98;36.28;100144.64;1692770;83;20991;-43
2022/08/14 11:35:26;;;;;;;18.27;4.08;;;;;;;33.07;36.73;100142.70;1692362;83;20943;-43
2022/08/14 11:37:58;;;;;;;11.97;3.50;;;;;;;33.00;35.15;100139.92;1692554;84;20995;-43
2022/08/14 11:40:33;;;;;;;22.07;4.30;;;;;;;32.81;34.72;100151.45;1692515;83;20991;-44
2022/08/14 11:43:02;;;;;;;10.15;4.00;;;;;;;32.75;35.17;100155.39;1666818;84;21206;-43
2022/08/14 11:45:33;;;;;;;11.48;3.77;;;;;;;32.83;34.13;100149.42;1721627;82;20932;-44
2022/08/14 11:48:02;;;;;;;15.93;4.03;;;;;;;32.99;33.71;100138.78;1657932;86;21001;-42